sensor_id;sensor_type;location;lat;lon;timestamp;P1;durP1;ratioP1;P2;durP2;ratioP2
38853;SDS011;24606;51.992;4.198;2023-06-10T00:03:33;4.03;;;3.25;;
38853;SDS011;24606;51.992;4.198;2023-06-10T00:08:34;4.18;;;3.03;;
38853;SDS011;24606;51.992;4.198;2023-06-10T00:13:39;4.75;;;3.10;;
38853;SDS011;24606;51.992;4.198;2023-06-10T00:18:41;3.97;;;3.10;;
38853;SDS011;24606;51.992;4.198;2023-06-10T00:23:44;5.35;;;3.28;;
38853;SDS011;24606;51.992;4.198;2023-06-10T00:28:47;3.70;;;2.70;;
38853;SDS011;24606;51.992;4.198;2023-06-10T00:33:49;3.80;;;3.20;;
38853;SDS011;24606;51.992;4.198;2023-06-10T00:38:51;4.13;;;3.20;;
38853;SDS011;24606;51.992;4.198;2023-06-10T00:43:54;3.17;;;2.60;;
38853;SDS011;24606;51.992;4.198;2023-06-10T00:48:56;3.50;;;3.20;;
38853;SDS011;24606;51.992;4.198;2023-06-10T00:53:58;6.20;;;3.75;;
38853;SDS011;24606;51.992;4.198;2023-06-10T00:59:01;4.88;;;2.70;;
38853;SDS011;24606;51.992;4.198;2023-06-10T01:04:03;6.32;;;3.50;;
38853;SDS011;24606;51.992;4.198;2023-06-10T01:09:06;3.55;;;3.25;;
38853;SDS011;24606;51.992;4.198;2023-06-10T01:14:15;4.10;;;3.22;;
38853;SDS011;24606;51.992;4.198;2023-06-10T01:19:18;3.70;;;3.10;;
38853;SDS011;24606;51.992;4.198;2023-06-10T01:24:21;4.97;;;3.22;;
38853;SDS011;24606;51.992;4.198;2023-06-10T01:29:24;3.40;;;3.10;;
38853;SDS011;24606;51.992;4.198;2023-06-10T01:34:30;3.78;;;3.30;;
38853;SDS011;24606;51.992;4.198;2023-06-10T01:39:35;4.72;;;3.10;;
38853;SDS011;24606;51.992;4.198;2023-06-10T01:44:38;3.38;;;2.95;;
38853;SDS011;24606;51.992;4.198;2023-06-10T01:49:42;3.35;;;3.05;;
38853;SDS011;24606;51.992;4.198;2023-06-10T01:54:45;3.35;;;3.00;;
38853;SDS011;24606;51.992;4.198;2023-06-10T01:59:47;3.35;;;2.88;;
38853;SDS011;24606;51.992;4.198;2023-06-10T02:04:48;3.80;;;3.10;;
38853;SDS011;24606;51.992;4.198;2023-06-10T02:09:51;4.13;;;3.10;;
38853;SDS011;24606;51.992;4.198;2023-06-10T02:14:53;3.28;;;2.97;;
38853;SDS011;24606;51.992;4.198;2023-06-10T02:19:55;4.78;;;2.78;;
38853;SDS011;24606;51.992;4.198;2023-06-10T02:25:00;3.38;;;2.92;;
38853;SDS011;24606;51.992;4.198;2023-06-10T02:30:01;3.00;;;2.72;;
38853;SDS011;24606;51.992;4.198;2023-06-10T02:35:04;4.07;;;2.72;;
38853;SDS011;24606;51.992;4.198;2023-06-10T02:40:08;3.25;;;2.67;;
38853;SDS011;24606;51.992;4.198;2023-06-10T02:45:11;3.67;;;2.78;;
38853;SDS011;24606;51.992;4.198;2023-06-10T02:50:13;3.05;;;2.70;;
38853;SDS011;24606;51.992;4.198;2023-06-10T02:55:16;3.97;;;2.83;;
38853;SDS011;24606;51.992;4.198;2023-06-10T03:15:28;4.67;;;2.70;;
38853;SDS011;24606;51.992;4.198;2023-06-10T03:20:33;3.75;;;2.78;;
38853;SDS011;24606;51.992;4.198;2023-06-10T03:25:37;3.15;;;2.70;;
38853;SDS011;24606;51.992;4.198;2023-06-10T03:30:40;3.70;;;2.90;;
38853;SDS011;24606;51.992;4.198;2023-06-10T03:35:42;3.63;;;2.50;;
38853;SDS011;24606;51.992;4.198;2023-06-10T03:40:44;3.42;;;2.70;;
38853;SDS011;24606;51.992;4.198;2023-06-10T03:45:47;3.85;;;2.90;;
38853;SDS011;24606;51.992;4.198;2023-06-10T03:50:49;3.45;;;2.88;;
38853;SDS011;24606;51.992;4.198;2023-06-10T03:55:52;3.35;;;3.05;;
38853;SDS011;24606;51.992;4.198;2023-06-10T04:00:55;2.83;;;2.50;;
38853;SDS011;24606;51.992;4.198;2023-06-10T04:05:57;3.30;;;3.00;;
38853;SDS011;24606;51.992;4.198;2023-06-10T04:10:59;3.08;;;2.85;;
38853;SDS011;24606;51.992;4.198;2023-06-10T04:16:02;8.05;;;3.05;;
38853;SDS011;24606;51.992;4.198;2023-06-10T04:21:04;3.30;;;2.72;;
38853;SDS011;24606;51.992;4.198;2023-06-10T04:26:06;3.40;;;2.40;;
38853;SDS011;24606;51.992;4.198;2023-06-10T04:31:10;3.17;;;2.70;;
38853;SDS011;24606;51.992;4.198;2023-06-10T04:36:11;3.08;;;2.40;;
38853;SDS011;24606;51.992;4.198;2023-06-10T04:41:14;3.50;;;2.78;;
38853;SDS011;24606;51.992;4.198;2023-06-10T04:46:18;2.97;;;2.67;;
38853;SDS011;24606;51.992;4.198;2023-06-10T04:51:20;2.85;;;2.58;;
38853;SDS011;24606;51.992;4.198;2023-06-10T04:56:21;3.55;;;3.10;;
38853;SDS011;24606;51.992;4.198;2023-06-10T05:01:25;2.75;;;2.50;;
38853;SDS011;24606;51.992;4.198;2023-06-10T05:06:27;3.70;;;3.15;;
38853;SDS011;24606;51.992;4.198;2023-06-10T05:11:29;4.38;;;2.58;;
38853;SDS011;24606;51.992;4.198;2023-06-10T05:16:33;3.90;;;2.90;;
38853;SDS011;24606;51.992;4.198;2023-06-10T05:21:34;4.32;;;2.78;;
38853;SDS011;24606;51.992;4.198;2023-06-10T05:26:36;5.03;;;2.38;;
38853;SDS011;24606;51.992;4.198;2023-06-10T05:31:40;5.03;;;2.50;;
38853;SDS011;24606;51.992;4.198;2023-06-10T05:36:42;5.07;;;2.90;;
38853;SDS011;24606;51.992;4.198;2023-06-10T05:41:44;4.50;;;2.30;;
38853;SDS011;24606;51.992;4.198;2023-06-10T05:46:48;4.50;;;2.92;;
38853;SDS011;24606;51.992;4.198;2023-06-10T05:51:50;4.18;;;3.28;;
38853;SDS011;24606;51.992;4.198;2023-06-10T05:56:52;6.07;;;2.40;;
38853;SDS011;24606;51.992;4.198;2023-06-10T06:01:56;3.95;;;2.50;;
38853;SDS011;24606;51.992;4.198;2023-06-10T06:06:57;3.83;;;2.72;;
38853;SDS011;24606;51.992;4.198;2023-06-10T06:11:59;5.03;;;2.30;;
38853;SDS011;24606;51.992;4.198;2023-06-10T06:17:03;2.90;;;2.60;;
38853;SDS011;24606;51.992;4.198;2023-06-10T06:22:05;6.10;;;2.50;;
38853;SDS011;24606;51.992;4.198;2023-06-10T06:27:07;3.75;;;2.97;;
38853;SDS011;24606;51.992;4.198;2023-06-10T06:32:10;2.88;;;2.50;;
38853;SDS011;24606;51.992;4.198;2023-06-10T06:37:12;3.75;;;2.85;;
38853;SDS011;24606;51.992;4.198;2023-06-10T06:42:13;4.03;;;3.08;;
38853;SDS011;24606;51.992;4.198;2023-06-10T06:47:16;4.30;;;2.95;;
38853;SDS011;24606;51.992;4.198;2023-06-10T06:52:19;4.60;;;2.95;;
38853;SDS011;24606;51.992;4.198;2023-06-10T06:57:22;4.93;;;2.88;;
38853;SDS011;24606;51.992;4.198;2023-06-10T07:02:25;4.35;;;3.15;;
38853;SDS011;24606;51.992;4.198;2023-06-10T07:07:27;5.53;;;3.80;;
38853;SDS011;24606;51.992;4.198;2023-06-10T07:12:29;4.68;;;3.45;;
38853;SDS011;24606;51.992;4.198;2023-06-10T07:17:32;5.40;;;3.25;;
38853;SDS011;24606;51.992;4.198;2023-06-10T07:22:34;4.30;;;3.20;;
38853;SDS011;24606;51.992;4.198;2023-06-10T07:27:39;4.75;;;2.92;;
38853;SDS011;24606;51.992;4.198;2023-06-10T07:32:42;6.18;;;3.45;;
38853;SDS011;24606;51.992;4.198;2023-06-10T07:37:46;6.25;;;3.42;;
38853;SDS011;24606;51.992;4.198;2023-06-10T07:42:47;3.03;;;2.70;;
38853;SDS011;24606;51.992;4.198;2023-06-10T07:47:51;15.32;;;2.80;;
38853;SDS011;24606;51.992;4.198;2023-06-10T07:52:52;7.85;;;3.45;;
38853;SDS011;24606;51.992;4.198;2023-06-10T07:57:54;5.53;;;3.00;;
38853;SDS011;24606;51.992;4.198;2023-06-10T08:02:57;3.95;;;3.25;;
38853;SDS011;24606;51.992;4.198;2023-06-10T08:07:59;7.25;;;3.38;;
38853;SDS011;24606;51.992;4.198;2023-06-10T08:13:01;5.80;;;3.17;;
38853;SDS011;24606;51.992;4.198;2023-06-10T08:18:04;4.22;;;3.20;;
38853;SDS011;24606;51.992;4.198;2023-06-10T08:23:06;5.80;;;3.05;;
38853;SDS011;24606;51.992;4.198;2023-06-10T08:28:08;3.10;;;2.80;;
38853;SDS011;24606;51.992;4.198;2023-06-10T08:33:11;4.85;;;3.25;;
38853;SDS011;24606;51.992;4.198;2023-06-10T08:38:13;11.52;;;2.78;;
38853;SDS011;24606;51.992;4.198;2023-06-10T08:43:17;6.10;;;3.55;;
38853;SDS011;24606;51.992;4.198;2023-06-10T08:48:24;3.97;;;2.92;;
38853;SDS011;24606;51.992;4.198;2023-06-10T08:53:30;5.22;;;3.67;;
38853;SDS011;24606;51.992;4.198;2023-06-10T08:58:34;5.18;;;3.13;;
38853;SDS011;24606;51.992;4.198;2023-06-10T09:03:43;3.30;;;3.00;;
38853;SDS011;24606;51.992;4.198;2023-06-10T09:08:45;3.33;;;2.80;;
38853;SDS011;24606;51.992;4.198;2023-06-10T09:13:47;6.05;;;3.33;;
38853;SDS011;24606;51.992;4.198;2023-06-10T09:18:50;3.85;;;3.20;;
38853;SDS011;24606;51.992;4.198;2023-06-10T09:23:55;3.72;;;3.08;;
38853;SDS011;24606;51.992;4.198;2023-06-10T09:28:58;5.78;;;3.42;;
38853;SDS011;24606;51.992;4.198;2023-06-10T09:34:07;4.50;;;3.22;;
38853;SDS011;24606;51.992;4.198;2023-06-10T09:39:13;3.38;;;3.08;;
38853;SDS011;24606;51.992;4.198;2023-06-10T09:44:18;8.15;;;3.78;;
38853;SDS011;24606;51.992;4.198;2023-06-10T09:49:22;3.40;;;2.83;;
38853;SDS011;24606;51.992;4.198;2023-06-10T09:54:24;5.40;;;3.17;;
38853;SDS011;24606;51.992;4.198;2023-06-10T09:59:33;5.85;;;2.83;;
38853;SDS011;24606;51.992;4.198;2023-06-10T10:04:37;7.25;;;3.53;;
38853;SDS011;24606;51.992;4.198;2023-06-10T10:09:39;3.88;;;2.85;;
38853;SDS011;24606;51.992;4.198;2023-06-10T10:14:46;3.28;;;2.70;;
38853;SDS011;24606;51.992;4.198;2023-06-10T10:19:50;5.03;;;2.75;;
38853;SDS011;24606;51.992;4.198;2023-06-10T10:24:57;5.20;;;3.25;;
38853;SDS011;24606;51.992;4.198;2023-06-10T10:30:00;8.75;;;3.95;;
38853;SDS011;24606;51.992;4.198;2023-06-10T10:35:12;10.27;;;4.03;;
38853;SDS011;24606;51.992;4.198;2023-06-10T10:40:17;4.60;;;3.33;;
38853;SDS011;24606;51.992;4.198;2023-06-10T10:45:21;6.13;;;3.40;;
38853;SDS011;24606;51.992;4.198;2023-06-10T10:50:25;4.97;;;3.72;;
38853;SDS011;24606;51.992;4.198;2023-06-10T10:55:31;11.75;;;4.50;;
38853;SDS011;24606;51.992;4.198;2023-06-10T11:00:33;7.47;;;3.72;;
38853;SDS011;24606;51.992;4.198;2023-06-10T11:05:38;5.65;;;3.15;;
38853;SDS011;24606;51.992;4.198;2023-06-10T11:10:50;5.40;;;3.63;;
38853;SDS011;24606;51.992;4.198;2023-06-10T11:15:56;3.40;;;2.75;;
38853;SDS011;24606;51.992;4.198;2023-06-10T11:21:01;4.50;;;3.05;;
38853;SDS011;24606;51.992;4.198;2023-06-10T11:26:14;5.25;;;3.72;;
38853;SDS011;24606;51.992;4.198;2023-06-10T11:31:18;3.72;;;3.20;;
38853;SDS011;24606;51.992;4.198;2023-06-10T11:36:23;4.40;;;3.33;;
38853;SDS011;24606;51.992;4.198;2023-06-10T11:41:25;4.60;;;2.80;;
38853;SDS011;24606;51.992;4.198;2023-06-10T11:46:29;3.53;;;2.65;;
38853;SDS011;24606;51.992;4.198;2023-06-10T11:51:33;9.30;;;3.22;;
38853;SDS011;24606;51.992;4.198;2023-06-10T11:56:36;5.53;;;3.55;;
38853;SDS011;24606;51.992;4.198;2023-06-10T12:01:40;3.28;;;2.97;;
38853;SDS011;24606;51.992;4.198;2023-06-10T12:06:46;4.75;;;3.70;;
38853;SDS011;24606;51.992;4.198;2023-06-10T12:11:49;4.40;;;3.45;;
38853;SDS011;24606;51.992;4.198;2023-06-10T12:16:52;4.05;;;3.50;;
38853;SDS011;24606;51.992;4.198;2023-06-10T12:21:55;8.35;;;3.63;;
38853;SDS011;24606;51.992;4.198;2023-06-10T12:26:57;5.20;;;3.60;;
38853;SDS011;24606;51.992;4.198;2023-06-10T12:31:59;4.60;;;3.45;;
38853;SDS011;24606;51.992;4.198;2023-06-10T12:37:05;4.43;;;3.28;;
38853;SDS011;24606;51.992;4.198;2023-06-10T12:42:08;5.57;;;3.53;;
38853;SDS011;24606;51.992;4.198;2023-06-10T12:47:10;6.00;;;3.50;;
38853;SDS011;24606;51.992;4.198;2023-06-10T12:52:14;5.78;;;3.38;;
38853;SDS011;24606;51.992;4.198;2023-06-10T12:57:18;7.60;;;3.25;;
38853;SDS011;24606;51.992;4.198;2023-06-10T13:02:25;4.72;;;2.90;;
38853;SDS011;24606;51.992;4.198;2023-06-10T13:07:28;6.32;;;3.40;;
38853;SDS011;24606;51.992;4.198;2023-06-10T13:12:30;4.80;;;3.20;;
38853;SDS011;24606;51.992;4.198;2023-06-10T13:17:32;4.55;;;2.85;;
38853;SDS011;24606;51.992;4.198;2023-06-10T13:22:37;3.28;;;2.70;;
38853;SDS011;24606;51.992;4.198;2023-06-10T13:27:39;2.95;;;2.67;;
38853;SDS011;24606;51.992;4.198;2023-06-10T13:32:42;3.45;;;2.55;;
38853;SDS011;24606;51.992;4.198;2023-06-10T13:37:45;6.03;;;4.30;;
38853;SDS011;24606;51.992;4.198;2023-06-10T13:42:47;3.83;;;2.55;;
38853;SDS011;24606;51.992;4.198;2023-06-10T13:47:50;7.60;;;3.08;;
38853;SDS011;24606;51.992;4.198;2023-06-10T13:52:54;3.65;;;2.85;;
38853;SDS011;24606;51.992;4.198;2023-06-10T13:57:55;3.15;;;2.85;;
38853;SDS011;24606;51.992;4.198;2023-06-10T14:02:57;4.90;;;2.58;;
38853;SDS011;24606;51.992;4.198;2023-06-10T14:08:00;8.80;;;3.20;;
38853;SDS011;24606;51.992;4.198;2023-06-10T14:13:03;8.07;;;3.47;;
38853;SDS011;24606;51.992;4.198;2023-06-10T14:18:05;4.85;;;3.10;;
38853;SDS011;24606;51.992;4.198;2023-06-10T14:23:08;6.03;;;3.25;;
38853;SDS011;24606;51.992;4.198;2023-06-10T14:28:10;4.53;;;3.42;;
38853;SDS011;24606;51.992;4.198;2023-06-10T14:33:11;10.38;;;4.50;;
38853;SDS011;24606;51.992;4.198;2023-06-10T14:38:15;11.57;;;3.78;;
38853;SDS011;24606;51.992;4.198;2023-06-10T14:43:17;5.43;;;3.17;;
38853;SDS011;24606;51.992;4.198;2023-06-10T14:48:19;6.65;;;2.72;;
38853;SDS011;24606;51.992;4.198;2023-06-10T14:53:22;4.53;;;3.08;;
38853;SDS011;24606;51.992;4.198;2023-06-10T14:58:24;4.90;;;2.80;;
38853;SDS011;24606;51.992;4.198;2023-06-10T15:03:26;14.38;;;3.88;;
38853;SDS011;24606;51.992;4.198;2023-06-10T15:08:29;4.78;;;2.67;;
38853;SDS011;24606;51.992;4.198;2023-06-10T15:13:31;4.85;;;3.13;;
38853;SDS011;24606;51.992;4.198;2023-06-10T15:18:33;3.35;;;2.72;;
38853;SDS011;24606;51.992;4.198;2023-06-10T15:23:36;2.78;;;2.47;;
38853;SDS011;24606;51.992;4.198;2023-06-10T15:28:38;3.75;;;2.42;;
38853;SDS011;24606;51.992;4.198;2023-06-10T15:33:40;5.18;;;2.72;;
38853;SDS011;24606;51.992;4.198;2023-06-10T15:38:43;5.50;;;3.05;;
38853;SDS011;24606;51.992;4.198;2023-06-10T15:43:46;5.25;;;3.45;;
38853;SDS011;24606;51.992;4.198;2023-06-10T15:48:48;5.75;;;3.17;;
38853;SDS011;24606;51.992;4.198;2023-06-10T15:53:51;6.13;;;2.80;;
38853;SDS011;24606;51.992;4.198;2023-06-10T15:58:53;4.72;;;3.47;;
38853;SDS011;24606;51.992;4.198;2023-06-10T16:03:55;4.60;;;2.92;;
38853;SDS011;24606;51.992;4.198;2023-06-10T16:08:58;3.13;;;2.47;;
38853;SDS011;24606;51.992;4.198;2023-06-10T16:14:02;5.80;;;2.92;;
38853;SDS011;24606;51.992;4.198;2023-06-10T16:19:04;6.05;;;3.00;;
38853;SDS011;24606;51.992;4.198;2023-06-10T16:24:07;2.70;;;2.50;;
38853;SDS011;24606;51.992;4.198;2023-06-10T16:29:09;3.03;;;2.25;;
38853;SDS011;24606;51.992;4.198;2023-06-10T16:34:11;7.53;;;3.55;;
38853;SDS011;24606;51.992;4.198;2023-06-10T16:39:14;3.75;;;2.95;;
38853;SDS011;24606;51.992;4.198;2023-06-10T16:44:16;4.32;;;2.53;;
38853;SDS011;24606;51.992;4.198;2023-06-10T16:49:18;4.45;;;3.03;;
38853;SDS011;24606;51.992;4.198;2023-06-10T16:54:21;5.00;;;2.35;;
38853;SDS011;24606;51.992;4.198;2023-06-10T16:59:23;4.10;;;2.50;;
38853;SDS011;24606;51.992;4.198;2023-06-10T17:04:25;3.80;;;2.70;;
38853;SDS011;24606;51.992;4.198;2023-06-10T17:09:28;3.17;;;2.67;;
38853;SDS011;24606;51.992;4.198;2023-06-10T17:14:30;4.28;;;2.60;;
38853;SDS011;24606;51.992;4.198;2023-06-10T17:19:31;6.47;;;3.35;;
38853;SDS011;24606;51.992;4.198;2023-06-10T17:24:35;4.55;;;2.85;;
38853;SDS011;24606;51.992;4.198;2023-06-10T17:29:37;4.68;;;2.92;;
38853;SDS011;24606;51.992;4.198;2023-06-10T17:34:39;5.35;;;3.10;;
38853;SDS011;24606;51.992;4.198;2023-06-10T17:39:42;2.70;;;2.30;;
38853;SDS011;24606;51.992;4.198;2023-06-10T17:44:44;2.95;;;2.63;;
38853;SDS011;24606;51.992;4.198;2023-06-10T17:49:46;3.15;;;2.30;;
38853;SDS011;24606;51.992;4.198;2023-06-10T17:54:49;10.43;;;2.83;;
38853;SDS011;24606;51.992;4.198;2023-06-10T17:59:51;5.18;;;2.72;;
38853;SDS011;24606;51.992;4.198;2023-06-10T18:04:53;3.25;;;2.47;;
38853;SDS011;24606;51.992;4.198;2023-06-10T18:09:56;3.53;;;2.25;;
38853;SDS011;24606;51.992;4.198;2023-06-10T18:14:58;4.20;;;2.60;;
38853;SDS011;24606;51.992;4.198;2023-06-10T18:20:00;4.63;;;2.67;;
38853;SDS011;24606;51.992;4.198;2023-06-10T18:25:04;3.53;;;2.53;;
38853;SDS011;24606;51.992;4.198;2023-06-10T18:30:06;2.65;;;2.38;;
38853;SDS011;24606;51.992;4.198;2023-06-10T18:35:09;3.63;;;3.22;;
38853;SDS011;24606;51.992;4.198;2023-06-10T18:40:12;7.50;;;3.92;;
38853;SDS011;24606;51.992;4.198;2023-06-10T18:45:14;7.07;;;5.00;;
38853;SDS011;24606;51.992;4.198;2023-06-10T18:50:16;8.20;;;5.68;;
38853;SDS011;24606;51.992;4.198;2023-06-10T18:55:19;7.13;;;5.35;;
38853;SDS011;24606;51.992;4.198;2023-06-10T19:00:21;7.72;;;5.20;;
38853;SDS011;24606;51.992;4.198;2023-06-10T19:05:23;6.88;;;5.22;;
38853;SDS011;24606;51.992;4.198;2023-06-10T19:10:26;7.93;;;5.30;;
38853;SDS011;24606;51.992;4.198;2023-06-10T19:15:28;6.70;;;5.10;;
38853;SDS011;24606;51.992;4.198;2023-06-10T19:20:30;7.00;;;4.85;;
38853;SDS011;24606;51.992;4.198;2023-06-10T19:25:33;5.88;;;4.40;;
38853;SDS011;24606;51.992;4.198;2023-06-10T19:30:35;7.25;;;4.00;;
38853;SDS011;24606;51.992;4.198;2023-06-10T19:35:37;5.15;;;3.63;;
38853;SDS011;24606;51.992;4.198;2023-06-10T19:40:42;4.07;;;3.55;;
38853;SDS011;24606;51.992;4.198;2023-06-10T19:45:44;3.88;;;3.13;;
38853;SDS011;24606;51.992;4.198;2023-06-10T19:50:48;3.90;;;3.17;;
38853;SDS011;24606;51.992;4.198;2023-06-10T19:55:51;3.80;;;3.13;;
38853;SDS011;24606;51.992;4.198;2023-06-10T20:00:53;4.50;;;2.95;;
38853;SDS011;24606;51.992;4.198;2023-06-10T20:05:55;3.50;;;2.75;;
38853;SDS011;24606;51.992;4.198;2023-06-10T20:10:58;4.75;;;2.47;;
38853;SDS011;24606;51.992;4.198;2023-06-10T20:16:00;3.55;;;2.80;;
38853;SDS011;24606;51.992;4.198;2023-06-10T20:21:02;5.03;;;2.70;;
38853;SDS011;24606;51.992;4.198;2023-06-10T20:26:05;4.03;;;2.42;;
38853;SDS011;24606;51.992;4.198;2023-06-10T20:31:07;7.95;;;2.78;;
38853;SDS011;24606;51.992;4.198;2023-06-10T20:36:09;5.88;;;3.20;;
38853;SDS011;24606;51.992;4.198;2023-06-10T20:41:12;11.63;;;3.40;;
38853;SDS011;24606;51.992;4.198;2023-06-10T20:46:15;9.32;;;3.60;;
38853;SDS011;24606;51.992;4.198;2023-06-10T20:51:17;13.38;;;3.92;;
38853;SDS011;24606;51.992;4.198;2023-06-10T20:56:20;12.45;;;3.33;;
38853;SDS011;24606;51.992;4.198;2023-06-10T21:01:23;9.35;;;3.15;;
38853;SDS011;24606;51.992;4.198;2023-06-10T21:06:25;13.77;;;4.00;;
38853;SDS011;24606;51.992;4.198;2023-06-10T21:11:28;8.65;;;3.20;;
38853;SDS011;24606;51.992;4.198;2023-06-10T21:16:30;10.73;;;3.00;;
38853;SDS011;24606;51.992;4.198;2023-06-10T21:21:33;9.35;;;3.38;;
38853;SDS011;24606;51.992;4.198;2023-06-10T21:26:37;8.18;;;2.72;;
38853;SDS011;24606;51.992;4.198;2023-06-10T21:31:39;10.60;;;3.90;;
38853;SDS011;24606;51.992;4.198;2023-06-10T21:36:41;6.57;;;2.83;;
38853;SDS011;24606;51.992;4.198;2023-06-10T21:41:44;9.77;;;2.47;;
38853;SDS011;24606;51.992;4.198;2023-06-10T21:46:46;6.55;;;2.70;;
38853;SDS011;24606;51.992;4.198;2023-06-10T21:51:49;11.32;;;2.83;;
38853;SDS011;24606;51.992;4.198;2023-06-10T21:56:52;6.78;;;2.63;;
38853;SDS011;24606;51.992;4.198;2023-06-10T22:01:54;8.02;;;2.20;;
38853;SDS011;24606;51.992;4.198;2023-06-10T22:06:56;5.53;;;2.35;;
38853;SDS011;24606;51.992;4.198;2023-06-10T22:11:59;4.80;;;2.28;;
38853;SDS011;24606;51.992;4.198;2023-06-10T22:17:01;5.57;;;2.42;;
38853;SDS011;24606;51.992;4.198;2023-06-10T22:22:03;4.80;;;2.20;;
38853;SDS011;24606;51.992;4.198;2023-06-10T22:27:07;3.65;;;2.22;;
38853;SDS011;24606;51.992;4.198;2023-06-10T22:32:09;3.85;;;1.92;;
38853;SDS011;24606;51.992;4.198;2023-06-10T22:37:11;5.22;;;2.00;;
38853;SDS011;24606;51.992;4.198;2023-06-10T22:42:14;4.47;;;2.17;;
38853;SDS011;24606;51.992;4.198;2023-06-10T22:47:16;2.90;;;1.90;;
38853;SDS011;24606;51.992;4.198;2023-06-10T22:52:18;3.03;;;2.08;;
38853;SDS011;24606;51.992;4.198;2023-06-10T22:57:21;2.03;;;1.73;;
38853;SDS011;24606;51.992;4.198;2023-06-10T23:02:23;2.63;;;1.73;;
38853;SDS011;24606;51.992;4.198;2023-06-10T23:07:25;4.53;;;1.70;;
38853;SDS011;24606;51.992;4.198;2023-06-10T23:12:28;2.03;;;1.80;;
38853;SDS011;24606;51.992;4.198;2023-06-10T23:17:30;3.33;;;2.15;;
38853;SDS011;24606;51.992;4.198;2023-06-10T23:22:32;3.35;;;1.73;;
38853;SDS011;24606;51.992;4.198;2023-06-10T23:27:36;2.30;;;1.60;;
38853;SDS011;24606;51.992;4.198;2023-06-10T23:32:37;2.42;;;2.08;;
38853;SDS011;24606;51.992;4.198;2023-06-10T23:37:39;3.35;;;2.10;;
38853;SDS011;24606;51.992;4.198;2023-06-10T23:42:42;4.40;;;2.30;;
38853;SDS011;24606;51.992;4.198;2023-06-10T23:47:44;2.42;;;1.88;;
38853;SDS011;24606;51.992;4.198;2023-06-10T23:52:46;3.08;;;2.15;;
38853;SDS011;24606;51.992;4.198;2023-06-10T23:57:49;2.45;;;2.03;;
